Time;durP1;ratioP1;P1;durP2;ratioP2;P2;SDS_P1;SDS_P2;PMS_P1;PMS_P2;Temp;Humidity;BMP_temperature;BMP_pressure;BME280_temperature;BME280_humidity;BME280_pressure;Samples;Min_cycle;Max_cycle;Signal;HPM_P1;HPM_P2
2021/06/16 00:02:35;;;;;;;10.60;6.25;;;;;;;18.98;81.99;100089.95;1705172;84;21243;-57
2021/06/16 00:05:39;;;;;;;10.58;7.25;;;;;;;18.95;82.23;100092.64;1705123;84;21255;-56
2021/06/16 00:08:45;;;;;;;8.65;6.70;;;;;;;18.94;82.59;100091.49;1705129;84;21761;-56
2021/06/16 00:11:52;;;;;;;9.85;6.60;;;;;;;18.91;82.91;100085.89;1705155;84;21296;-56
2021/06/16 00:14:57;;;;;;;9.03;6.33;;;;;;;18.92;83.06;100095.89;1705272;84;21244;-55
2021/06/16 00:18:02;;;;;;;8.13;6.58;;;;;;;18.93;83.21;100100.91;1705298;84;21316;-56
2021/06/16 00:21:08;;;;;;;9.58;6.08;;;;;;;18.92;83.28;100102.83;1705055;84;21232;-55
2021/06/16 00:24:19;;;;;;;8.93;6.67;;;;;;;18.91;83.45;100110.86;1705158;84;21247;-55
2021/06/16 00:27:22;;;;;;;7.25;6.10;;;;;;;18.91;83.55;100119.18;1705092;84;21772;-56
2021/06/16 00:30:26;;;;;;;7.58;6.33;;;;;;;18.89;83.59;100126.02;1705227;84;21307;-56
2021/06/16 00:33:32;;;;;;;9.53;6.42;;;;;;;18.86;83.68;100129.27;1705140;84;21224;-56
2021/06/16 00:36:38;;;;;;;8.60;6.60;;;;;;;18.82;83.82;100127.50;1705156;84;21216;-55
2021/06/16 00:39:43;;;;;;;7.60;6.22;;;;;;;18.78;83.97;100136.01;1705255;84;21748;-56
2021/06/16 00:42:48;;;;;;;8.00;6.87;;;;;;;18.76;84.33;100139.55;1705197;84;21295;-56
2021/06/16 00:45:55;;;;;;;8.65;6.50;;;;;;;18.78;84.60;100140.70;1705042;84;21311;-55
2021/06/16 00:49:00;;;;;;;9.58;6.97;;;;;;;18.76;84.54;100129.84;1705181;84;21304;-55
2021/06/16 00:52:05;;;;;;;9.40;6.53;;;;;;;18.72;84.46;100132.79;1705231;84;21302;-55
2021/06/16 00:55:12;;;;;;;13.78;7.33;;;;;;;18.69;84.67;100144.36;1705284;84;21224;-55
2021/06/16 00:58:18;;;;;;;11.80;7.47;;;;;;;18.68;84.83;100139.05;1705144;84;21212;-56
2021/06/16 01:01:34;;;;;;;9.18;7.90;;;;;;;18.61;84.91;100136.36;1698927;84;21287;-55
2021/06/16 01:04:39;;;;;;;9.38;6.65;;;;;;;18.58;85.09;100133.20;1700594;84;21876;-55
2021/06/16 01:07:48;;;;;;;9.20;7.30;;;;;;;18.54;85.31;100132.81;1700237;84;21351;-56
2021/06/16 01:10:55;;;;;;;8.20;6.78;;;;;;;18.53;85.59;100138.06;1699991;83;21217;-56
2021/06/16 01:14:07;;;;;;;8.98;7.37;;;;;;;18.54;85.98;100144.44;1700268;84;21671;-56
2021/06/16 01:17:13;;;;;;;11.45;7.67;;;;;;;18.56;86.23;100154.23;1688261;84;21279;-56
2021/06/16 01:20:50;;;;;;;10.68;7.83;;;;;;;18.56;86.31;100157.00;1687697;84;21205;-55
2021/06/16 01:24:18;;;;;;;8.25;7.45;;;;;;;18.56;86.45;100157.00;1699978;84;21405;-55
2021/06/16 01:27:23;;;;;;;8.55;7.72;;;;;;;18.57;86.69;100168.39;1700329;84;21773;-56
2021/06/16 01:30:29;;;;;;;12.55;7.95;;;;;;;18.60;86.79;100171.25;1700293;84;21815;-56
2021/06/16 01:33:34;;;;;;;10.03;7.17;;;;;;;18.62;86.94;100171.31;1699849;84;21248;-55
2021/06/16 01:36:41;;;;;;;11.22;7.25;;;;;;;18.61;86.80;100161.84;1700661;84;21371;-56
2021/06/16 01:39:46;;;;;;;8.53;7.53;;;;;;;18.59;86.64;100159.30;1687909;84;21648;-55
2021/06/16 01:42:53;;;;;;;10.75;7.50;;;;;;;18.55;86.60;100153.91;1700591;84;21355;-56
2021/06/16 01:45:59;;;;;;;11.53;7.58;;;;;;;18.51;86.75;100155.46;1700081;84;21830;-55
2021/06/16 01:49:04;;;;;;;13.68;7.65;;;;;;;18.50;86.80;100156.55;1699723;84;21454;-57
2021/06/16 01:52:09;;;;;;;18.77;8.40;;;;;;;18.49;86.95;100143.75;1699857;84;21790;-56
2021/06/16 01:55:16;;;;;;;13.08;8.63;;;;;;;18.46;87.01;100145.61;1699911;84;21438;-56
2021/06/16 01:58:22;;;;;;;11.95;8.20;;;;;;;18.43;87.01;100143.30;1700689;84;21355;-56
2021/06/16 02:01:29;;;;;;;11.50;8.48;;;;;;;18.40;86.97;100148.45;1697702;84;21200;-56
2021/06/16 02:04:35;;;;;;;9.38;8.15;;;;;;;18.38;87.19;100154.77;1701510;84;21424;-56
2021/06/16 02:07:42;;;;;;;13.35;8.73;;;;;;;18.35;87.25;100157.44;1701570;84;21203;-56
2021/06/16 02:10:53;;;;;;;11.22;8.38;;;;;;;18.32;87.41;100153.75;1682818;84;21984;-55
2021/06/16 02:14:06;;;;;;;14.33;8.63;;;;;;;18.32;87.42;100163.45;1701745;84;21400;-56
2021/06/16 02:17:16;;;;;;;13.88;8.65;;;;;;;18.29;87.35;100161.14;1701667;84;21417;-56
2021/06/16 02:20:22;;;;;;;15.03;8.10;;;;;;;18.26;87.50;100169.06;1701625;84;21366;-55
2021/06/16 02:23:29;;;;;;;14.75;9.30;;;;;;;18.23;87.59;100173.16;1701564;84;21775;-55
2021/06/16 02:26:35;;;;;;;13.25;9.10;;;;;;;18.25;87.75;100179.29;1701678;84;21377;-56
2021/06/16 02:29:40;;;;;;;11.00;8.98;;;;;;;18.24;87.76;100179.52;1701513;84;21235;-56
2021/06/16 02:32:45;;;;;;;14.50;8.68;;;;;;;18.25;87.81;100187.60;1701629;84;21444;-56
2021/06/16 02:35:50;;;;;;;18.92;8.85;;;;;;;18.26;87.88;100191.23;1701590;84;21234;-57
2021/06/16 02:38:56;;;;;;;15.78;9.55;;;;;;;18.28;88.04;100200.17;1701605;84;21247;-56
2021/06/16 02:42:01;;;;;;;28.25;11.85;;;;;;;18.30;88.18;100196.08;1701600;84;21357;-56
2021/06/16 02:45:02;;;;;;;17.17;9.93;;;;;;;18.33;88.07;100192.84;1701590;84;22092;-55
2021/06/16 02:48:08;;;;;;;12.00;9.75;;;;;;;18.36;87.88;100195.71;1701634;84;21324;-55
2021/06/16 02:51:13;;;;;;;13.93;8.80;;;;;;;18.38;87.92;100188.02;1701553;84;21763;-56
2021/06/16 02:57:34;;;;;;;13.10;9.53;;;;;;;18.49;87.70;100183.13;1716660;83;21283;-56
2021/06/16 03:00:39;;;;;;;10.32;8.48;;;;;;;18.56;87.66;100183.34;1703451;83;21389;-55
2021/06/16 03:03:46;;;;;;;10.20;8.63;;;;;;;18.61;87.45;100188.19;1718368;83;21266;-58
2021/06/16 03:06:52;;;;;;;9.45;7.90;;;;;;;18.62;87.17;100178.24;1718407;83;21192;-59
2021/06/16 03:09:57;;;;;;;13.40;7.67;;;;;;;18.64;87.15;100178.02;1718425;82;21377;-59
2021/06/16 03:13:05;;;;;;;10.85;7.72;;;;;;;18.63;87.03;100173.00;1718348;83;21291;-58
2021/06/16 03:16:11;;;;;;;9.58;7.72;;;;;;;18.65;87.04;100175.00;1718250;82;21219;-58
2021/06/16 03:19:17;;;;;;;7.80;7.00;;;;;;;18.68;86.90;100175.92;1718353;82;21219;-58
2021/06/16 03:22:23;;;;;;;13.38;7.92;;;;;;;18.73;86.86;100173.83;1718381;83;21187;-59
2021/06/16 03:25:28;;;;;;;11.45;7.72;;;;;;;18.82;86.99;100173.27;1718271;82;21250;-59
2021/06/16 03:28:34;;;;;;;14.28;7.53;;;;;;;18.93;86.93;100178.59;1718449;83;21393;-58
2021/06/16 03:31:40;;;;;;;9.13;6.75;;;;;;;19.06;86.83;100183.39;1718320;83;21219;-58
2021/06/16 03:34:45;;;;;;;11.60;7.20;;;;;;;19.18;86.52;100188.46;1718399;82;21353;-59
2021/06/16 03:37:50;;;;;;;10.08;7.50;;;;;;;19.30;86.09;100187.13;1718422;83;21248;-59
2021/06/16 03:40:49;;;;;;;10.45;7.45;;;;;;;19.43;85.81;100195.25;1718340;82;21247;-59
2021/06/16 03:43:56;;;;;;;9.68;7.67;;;;;;;19.55;85.59;100201.66;1718475;83;21366;-59
2021/06/16 03:47:04;;;;;;;11.05;6.72;;;;;;;19.66;85.27;100209.73;1718109;83;21243;-57
2021/06/16 03:50:10;;;;;;;8.85;6.85;;;;;;;19.75;84.87;100216.09;1718144;82;21204;-59
2021/06/16 03:53:18;;;;;;;9.35;7.08;;;;;;;19.79;84.25;100227.02;1718356;83;21278;-60
2021/06/16 03:56:23;;;;;;;14.03;6.65;;;;;;;19.77;83.69;100238.08;1716818;82;21314;-59
2021/06/16 03:59:28;;;;;;;9.70;6.70;;;;;;;19.74;83.42;100241.33;1713174;82;21509;-61
2021/06/16 04:02:33;;;;;;;14.53;6.95;;;;;;;19.70;83.46;100236.79;1713152;84;21409;-60
2021/06/16 04:05:37;;;;;;;11.95;7.42;;;;;;;19.71;83.49;100244.59;1713175;82;21207;-57
2021/06/16 04:08:44;;;;;;;14.45;6.58;;;;;;;19.76;83.73;100254.42;1713250;84;21354;-58
2021/06/16 04:11:51;;;;;;;14.53;7.40;;;;;;;19.79;83.71;100256.19;1713096;84;21217;-59
2021/06/16 04:14:56;;;;;;;12.63;7.40;;;;;;;19.83;83.65;100254.64;1713242;82;21264;-59
2021/06/16 04:18:02;;;;;;;17.00;7.00;;;;;;;19.89;83.65;100262.55;1713224;84;21354;-59
2021/06/16 04:21:08;;;;;;;11.50;6.30;;;;;;;19.93;83.51;100256.83;1713146;82;21481;-59
2021/06/16 04:24:15;;;;;;;16.12;6.35;;;;;;;19.95;83.20;100258.80;1713161;82;21374;-58
2021/06/16 04:27:20;;;;;;;10.68;6.67;;;;;;;19.99;83.09;100262.81;1713086;84;21362;-58
2021/06/16 04:30:27;;;;;;;11.73;6.47;;;;;;;20.03;83.05;100254.28;1713217;82;21390;-59
2021/06/16 04:33:34;;;;;;;12.40;7.22;;;;;;;20.08;82.78;100269.70;1713132;84;21337;-60
2021/06/16 04:36:39;;;;;;;11.20;6.87;;;;;;;20.06;82.29;100273.28;1713229;84;21358;-59
2021/06/16 04:39:45;;;;;;;13.05;7.40;;;;;;;19.99;82.27;100276.17;1713227;82;21595;-60
2021/06/16 04:42:51;;;;;;;17.60;7.67;;;;;;;19.92;82.11;100289.85;1712917;84;21366;-57
2021/06/16 04:45:57;;;;;;;17.48;7.33;;;;;;;19.83;82.46;100283.81;1712991;82;21696;-57
2021/06/16 04:49:02;;;;;;;12.45;8.28;;;;;;;19.75;82.96;100270.80;1683623;85;21702;-57
2021/06/16 04:52:07;;;;;;;12.13;7.75;;;;;;;19.70;83.44;100266.48;1683459;85;21212;-56
2021/06/16 04:55:14;;;;;;;9.68;7.50;;;;;;;19.65;83.87;100260.80;1683735;84;21246;-55
2021/06/16 04:58:19;;;;;;;13.05;7.72;;;;;;;19.60;84.18;100264.85;1683981;82;21558;-55
2021/06/16 05:01:24;;;;;;;9.48;7.55;;;;;;;19.54;84.95;100263.85;1683920;84;21238;-55
2021/06/16 05:04:31;;;;;;;8.98;7.80;;;;;;;19.55;85.50;100254.99;1709431;81;21758;-56
2021/06/16 05:07:37;;;;;;;9.23;7.55;;;;;;;19.59;85.83;100252.03;1673013;84;21251;-56
2021/06/16 05:10:42;;;;;;;9.25;7.20;;;;;;;19.59;85.78;100256.20;1683721;84;21247;-56
2021/06/16 05:13:48;;;;;;;9.58;8.05;;;;;;;19.59;85.98;100259.83;1688750;84;21271;-56
2021/06/16 05:16:54;;;;;;;9.68;7.28;;;;;;;19.63;86.15;100254.66;1667813;86;21621;-57
2021/06/16 05:19:59;;;;;;;12.73;7.60;;;;;;;19.68;86.01;100258.95;1683245;84;21239;-56
2021/06/16 05:23:05;;;;;;;8.65;6.67;;;;;;;19.69;85.78;100268.44;1684021;84;21266;-55
2021/06/16 05:26:10;;;;;;;7.83;6.95;;;;;;;19.72;85.79;100261.55;1684042;84;21242;-56
2021/06/16 05:29:15;;;;;;;8.95;7.28;;;;;;;19.75;85.78;100270.27;1673612;84;21227;-56
2021/06/16 05:32:21;;;;;;;8.08;7.28;;;;;;;19.79;86.23;100269.25;1711917;84;21311;-58
2021/06/16 05:35:25;;;;;;;8.00;6.30;;;;;;;19.86;86.31;100279.16;1712739;84;21477;-58
2021/06/16 05:38:30;;;;;;;10.30;7.28;;;;;;;19.90;86.19;100269.81;1712792;84;21457;-57
2021/06/16 05:41:36;;;;;;;7.72;6.70;;;;;;;19.89;85.90;100267.57;1712952;84;21275;-56
2021/06/16 05:44:43;;;;;;;8.03;6.72;;;;;;;19.91;85.64;100268.19;1712158;84;21520;-57
2021/06/16 05:47:48;;;;;;;7.95;6.05;;;;;;;19.89;85.38;100266.71;1693572;84;21740;-58
2021/06/16 05:50:53;;;;;;;10.70;7.45;;;;;;;19.88;85.42;100257.55;1699401;82;21251;-57
2021/06/16 05:54:03;;;;;;;12.68;6.78;;;;;;;19.92;85.35;100259.28;1700264;84;21180;-56
2021/06/16 05:57:09;;;;;;;8.90;6.45;;;;;;;19.92;85.26;100249.02;1695810;83;21236;-56
2021/06/16 06:00:17;;;;;;;8.50;6.37;;;;;;;19.93;85.04;100251.27;1713740;82;21239;-55
2021/06/16 06:03:26;;;;;;;6.10;5.50;;;;;;;19.90;84.91;100250.36;1684082;85;21417;-56
2021/06/16 06:06:32;;;;;;;11.22;6.95;;;;;;;19.92;84.90;100257.89;1687593;84;21235;-56
2021/06/16 06:09:38;;;;;;;8.50;5.92;;;;;;;19.96;84.97;100253.56;1720489;83;21274;-56
2021/06/16 06:12:45;;;;;;;7.17;5.30;;;;;;;20.02;84.52;100258.16;1722268;82;21243;-56
2021/06/16 06:15:54;;;;;;;6.97;5.72;;;;;;;20.06;84.04;100269.12;1742869;81;21367;-57
2021/06/16 06:19:01;;;;;;;9.98;5.72;;;;;;;20.07;83.39;100265.23;1743392;82;21336;-56
2021/06/16 06:22:06;;;;;;;7.25;5.55;;;;;;;20.13;82.83;100274.00;1735354;82;21770;-58
2021/06/16 06:25:13;;;;;;;8.83;5.90;;;;;;;20.14;82.71;100273.79;1742524;81;21835;-58
2021/06/16 06:28:18;;;;;;;5.92;5.33;;;;;;;20.15;82.65;100283.81;1728998;82;21207;-54
2021/06/16 06:31:24;;;;;;;5.80;5.20;;;;;;;20.20;82.78;100274.78;1715228;82;21796;-55
2021/06/16 06:34:30;;;;;;;6.83;5.22;;;;;;;20.31;82.74;100282.27;1720096;82;21608;-55
2021/06/16 06:37:35;;;;;;;6.42;5.03;;;;;;;20.36;82.23;100288.79;1720013;83;21231;-56
2021/06/16 06:40:40;;;;;;;6.05;5.22;;;;;;;20.36;82.15;100279.62;1707353;82;21263;-56
2021/06/16 06:43:47;;;;;;;5.47;4.83;;;;;;;20.35;82.28;100273.73;1713069;82;21515;-55
2021/06/16 06:46:53;;;;;;;6.20;5.40;;;;;;;20.35;82.52;100284.86;1720374;82;21208;-54
2021/06/16 06:50:00;;;;;;;5.95;4.83;;;;;;;20.38;82.75;100281.06;1726459;82;21227;-54
2021/06/16 06:53:08;;;;;;;7.03;5.00;;;;;;;20.42;82.69;100283.64;1720521;83;21202;-54
2021/06/16 06:56:13;;;;;;;5.95;5.35;;;;;;;20.44;82.93;100285.64;1714987;83;21262;-55
2021/06/16 06:59:19;;;;;;;7.58;5.10;;;;;;;20.50;82.93;100283.84;1719954;82;21269;-55
2021/06/16 07:02:25;;;;;;;6.65;5.60;;;;;;;20.58;83.09;100287.09;1700228;83;21208;-55
2021/06/16 07:05:30;;;;;;;6.47;5.80;;;;;;;20.74;83.44;100286.88;1715429;82;21414;-57
2021/06/16 07:08:35;;;;;;;7.17;5.17;;;;;;;20.93;83.39;100282.03;1714560;80;21384;-57
2021/06/16 07:11:43;;;;;;;6.70;4.92;;;;;;;21.15;83.47;100283.09;1712928;84;21429;-56
2021/06/16 07:14:49;;;;;;;7.35;4.58;;;;;;;21.33;82.30;100268.42;1711506;84;21291;-57
2021/06/16 07:17:55;;;;;;;6.87;4.85;;;;;;;21.53;81.45;100278.56;1699816;84;21870;-56
2021/06/16 07:21:01;;;;;;;6.30;4.50;;;;;;;21.70;80.71;100285.04;1667034;84;21245;-56
2021/06/16 07:24:07;;;;;;;6.00;3.33;;;;;;;21.86;80.02;100282.01;1712572;83;21305;-57
2021/06/16 07:27:14;;;;;;;4.75;3.33;;;;;;;22.05;78.39;100277.89;1717412;83;21243;-57
2021/06/16 07:30:20;;;;;;;4.05;3.50;;;;;;;22.30;77.41;100284.41;1720975;82;21205;-56
2021/06/16 07:33:25;;;;;;;3.22;2.80;;;;;;;22.49;76.27;100291.42;1684332;83;21212;-55
2021/06/16 07:36:31;;;;;;;3.15;2.65;;;;;;;22.69;75.68;100282.01;1710368;82;21222;-57
2021/06/16 07:39:36;;;;;;;3.27;1.98;;;;;;;22.79;73.05;100284.92;1710426;83;21363;-55
2021/06/16 07:42:41;;;;;;;3.60;2.72;;;;;;;22.89;71.84;100287.87;1704882;82;21290;-55
2021/06/16 07:45:46;;;;;;;2.83;2.50;;;;;;;22.94;70.62;100285.15;1709960;82;21219;-55
2021/06/16 07:48:53;;;;;;;3.17;2.60;;;;;;;22.95;70.15;100285.44;1704295;83;21723;-56
2021/06/16 07:51:59;;;;;;;3.72;2.25;;;;;;;22.90;70.45;100286.75;1696288;84;21892;-56
2021/06/16 07:55:06;;;;;;;2.52;2.17;;;;;;;23.00;70.69;100277.98;1694933;83;21230;-56
2021/06/16 07:58:11;;;;;;;2.40;1.92;;;;;;;22.97;69.27;100271.52;1695276;84;21233;-57
2021/06/16 08:01:18;;;;;;;4.12;2.22;;;;;;;22.85;68.56;100276.94;1695464;81;21222;-58
2021/06/16 08:04:24;;;;;;;3.40;1.80;;;;;;;22.76;68.87;100279.32;1678473;84;21348;-56
2021/06/16 08:07:30;;;;;;;3.20;1.85;;;;;;;22.74;67.61;100291.28;1708102;83;21965;-55
2021/06/16 08:10:35;;;;;;;4.45;2.15;;;;;;;22.67;66.64;100293.97;1698024;83;21231;-57
2021/06/16 08:13:44;;;;;;;3.12;1.87;;;;;;;22.56;66.80;100297.71;1694430;82;21231;-56
2021/06/16 08:16:50;;;;;;;2.87;1.77;;;;;;;22.46;66.38;100295.58;1707427;84;21209;-55
2021/06/16 08:19:56;;;;;;;3.75;2.10;;;;;;;22.41;67.49;100300.22;1710725;82;21231;-57
2021/06/16 08:23:02;;;;;;;3.92;2.05;;;;;;;22.43;68.07;100295.23;1712563;83;21217;-56
2021/06/16 08:26:07;;;;;;;5.95;2.10;;;;;;;22.52;67.86;100290.94;1681389;84;21267;-55
2021/06/16 08:29:13;;;;;;;2.83;1.90;;;;;;;22.63;67.55;100297.00;1680816;84;21759;-57
2021/06/16 08:32:20;;;;;;;3.12;1.80;;;;;;;22.75;66.45;100302.77;1681464;85;21251;-56
2021/06/16 08:35:25;;;;;;;3.33;2.37;;;;;;;22.89;65.86;100300.44;1701038;83;21243;-56
2021/06/16 08:38:31;;;;;;;8.58;2.42;;;;;;;22.98;65.01;100300.27;1710086;83;21407;-57
2021/06/16 08:41:37;;;;;;;3.92;1.90;;;;;;;23.16;65.23;100299.97;1707720;83;21204;-57
2021/06/16 08:44:42;;;;;;;2.87;1.98;;;;;;;23.34;63.83;100297.70;1688646;83;21243;-59
2021/06/16 08:47:48;;;;;;;2.70;1.72;;;;;;;23.48;63.15;100292.58;1698651;84;21188;-57
2021/06/16 08:50:54;;;;;;;3.87;1.60;;;;;;;23.63;62.88;100294.13;1709595;83;21216;-57
2021/06/16 08:53:59;;;;;;;3.95;1.70;;;;;;;23.76;63.06;100292.86;1695913;84;21369;-57
2021/06/16 08:57:05;;;;;;;5.25;1.77;;;;;;;23.89;62.26;100300.30;1681129;85;21272;-55
2021/06/16 09:00:12;;;;;;;2.67;1.52;;;;;;;23.94;62.11;100300.89;1681436;85;21247;-59
2021/06/16 09:03:18;;;;;;;3.45;2.33;;;;;;;24.04;63.08;100302.43;1660726;83;21271;-57
2021/06/16 09:06:26;;;;;;;3.17;1.82;;;;;;;24.24;62.87;100301.20;1659029;85;21262;-62
2021/06/16 09:09:35;;;;;;;2.25;1.75;;;;;;;24.38;61.22;100295.44;1701979;82;21859;-59
2021/06/16 09:12:43;;;;;;;2.00;1.60;;;;;;;24.41;61.61;100300.49;1696126;83;21199;-56
2021/06/16 09:15:48;;;;;;;3.17;1.60;;;;;;;24.46;60.03;100301.94;1716914;82;21347;-56
2021/06/16 09:18:53;;;;;;;2.67;1.70;;;;;;;24.38;60.36;100301.03;1716711;83;21180;-56
2021/06/16 09:22:13;;;;;;;3.15;1.70;;;;;;;24.41;60.64;100298.55;1716925;83;21227;-57
2021/06/16 09:25:19;;;;;;;4.95;1.80;;;;;;;24.45;60.97;100285.69;1699783;83;21254;-55
2021/06/16 09:28:24;;;;;;;4.22;2.10;;;;;;;24.59;62.31;100293.91;1717490;83;21774;-55
2021/06/16 09:31:29;;;;;;;4.65;1.80;;;;;;;24.78;62.85;100290.98;1717152;82;21756;-55
2021/06/16 09:34:34;;;;;;;3.95;2.10;;;;;;;24.98;62.15;100290.27;1717638;82;21231;-56
2021/06/16 09:37:43;;;;;;;3.58;2.00;;;;;;;25.02;61.11;100294.23;1717839;83;21305;-57
2021/06/16 09:40:51;;;;;;;2.87;1.87;;;;;;;24.98;60.77;100302.33;1697181;83;21246;-54
2021/06/16 09:43:57;;;;;;;4.25;1.77;;;;;;;25.02;60.25;100298.43;1717973;83;21225;-54
2021/06/16 09:47:29;;;;;;;4.42;1.87;;;;;;;25.19;61.59;100315.03;1717768;83;21211;-54
2021/06/16 09:50:35;;;;;;;3.03;2.17;;;;;;;25.46;60.93;100308.73;1717619;82;21205;-54
2021/06/16 09:53:39;;;;;;;7.17;2.40;;;;;;;25.70;60.72;100305.73;1717533;83;21558;-53
2021/06/16 09:56:44;;;;;;;4.47;2.10;;;;;;;25.82;60.25;100302.09;1716571;83;21266;-52
2021/06/16 09:59:50;;;;;;;7.87;2.70;;;;;;;25.93;60.21;100307.46;1706350;83;21302;-54
2021/06/16 10:03:10;;;;;;;6.47;2.80;;;;;;;26.09;60.30;100313.96;1688976;85;21251;-55
2021/06/16 10:06:21;;;;;;;6.55;3.42;;;;;;;26.24;59.79;100312.59;1693087;83;21774;-55
2021/06/16 10:09:26;;;;;;;4.33;2.50;;;;;;;26.22;59.90;100309.21;1692998;83;21370;-55
2021/06/16 10:12:35;;;;;;;4.22;2.83;;;;;;;26.13;59.33;100302.48;1715368;82;21796;-57
2021/06/16 10:15:40;;;;;;;7.20;3.08;;;;;;;25.97;60.14;100302.14;1674662;84;21213;-57
2021/06/16 10:18:45;;;;;;;8.08;2.67;;;;;;;25.84;60.77;100308.28;1683254;84;21196;-54
2021/06/16 10:21:49;;;;;;;6.97;2.72;;;;;;;25.66;61.39;100301.23;1677437;84;21206;-55
2021/06/16 10:24:57;;;;;;;5.80;3.17;;;;;;;25.61;61.25;100311.61;1649272;85;21251;-55
2021/06/16 10:28:05;;;;;;;10.53;3.15;;;;;;;25.55;61.72;100301.47;1677695;85;21192;-56
2021/06/16 10:31:10;;;;;;;12.73;3.58;;;;;;;25.56;62.35;100302.59;1709215;82;21738;-55
2021/06/16 10:34:17;;;;;;;5.70;3.15;;;;;;;25.62;62.58;100299.25;1677355;85;21804;-56
2021/06/16 10:41:00;;;;;;;7.67;3.05;;;;;;;25.63;61.67;100286.91;1703471;83;21258;-58
2021/06/16 10:44:31;;;;;;;8.10;3.50;;;;;;;25.58;61.58;100288.29;1669366;82;21765;-60
2021/06/16 10:48:07;;;;;;;7.42;3.02;;;;;;;25.40;61.62;100284.61;1721941;83;21343;-57
2021/06/16 10:51:12;;;;;;;15.72;3.33;;;;;;;25.32;62.43;100294.91;1721848;82;21423;-57
2021/06/16 10:54:24;;;;;;;14.75;3.60;;;;;;;25.21;63.19;100300.19;1718664;83;21430;-58
2021/06/16 10:57:30;;;;;;;10.00;3.45;;;;;;;25.10;62.38;100297.06;1664549;84;21310;-58
2021/06/16 11:00:37;;;;;;;7.83;3.20;;;;;;;25.04;62.51;100298.43;1673920;84;21420;-59
2021/06/16 11:04:03;;;;;;;8.48;3.08;;;;;;;25.07;63.01;100297.61;1691865;84;21362;-58
2021/06/16 11:07:12;;;;;;;8.83;3.17;;;;;;;25.17;63.31;100297.64;1691939;84;21774;-58
2021/06/16 11:10:18;;;;;;;10.80;3.10;;;;;;;25.45;63.39;100294.44;1695714;83;21297;-58
2021/06/16 11:13:48;;;;;;;11.60;3.20;;;;;;;25.73;62.71;100284.99;1684894;85;21198;-58
2021/06/16 11:16:54;;;;;;;4.35;3.02;;;;;;;25.95;60.87;100282.78;1693558;84;21353;-60
2021/06/16 11:20:14;;;;;;;5.17;3.37;;;;;;;26.14;58.94;100268.52;1692211;83;21386;-57
2021/06/16 11:23:31;;;;;;;5.72;2.95;;;;;;;26.38;60.06;100278.61;1709093;83;21916;-58
2021/06/16 11:26:53;;;;;;;5.22;2.55;;;;;;;26.69;58.36;100271.86;1722620;83;21741;-59
2021/06/16 11:30:14;;;;;;;5.30;2.83;;;;;;;26.90;57.65;100263.66;1692956;84;21272;-59
2021/06/16 11:33:36;;;;;;;6.15;3.00;;;;;;;27.06;56.90;100258.83;1678909;84;21236;-59
2021/06/16 11:36:48;;;;;;;3.77;2.87;;;;;;;27.15;56.60;100255.14;1734479;82;21362;-58
2021/06/16 11:40:15;;;;;;;7.17;2.80;;;;;;;27.39;57.00;100243.53;1694430;82;22014;-58
2021/06/16 11:43:46;;;;;;;4.20;2.62;;;;;;;27.58;56.41;100247.91;1703838;83;21224;-60
2021/06/16 11:46:58;;;;;;;6.25;2.70;;;;;;;27.81;55.55;100243.00;1718804;82;21182;-60
2021/06/16 11:50:09;;;;;;;4.50;2.70;;;;;;;27.92;55.34;100240.41;1702642;82;21265;-58
2021/06/16 11:53:17;;;;;;;6.53;2.92;;;;;;;28.01;53.96;100244.83;1708408;82;21265;-61
2021/06/16 11:56:23;;;;;;;3.45;2.50;;;;;;;27.97;53.68;100245.16;1676530;83;21287;-60
2021/06/16 11:59:52;;;;;;;4.62;2.58;;;;;;;27.91;53.64;100254.78;1689788;83;21348;-58
2021/06/16 12:02:57;;;;;;;3.22;2.52;;;;;;;27.86;52.75;100253.63;1648720;86;21204;-59
2021/06/16 12:06:17;;;;;;;2.05;1.85;;;;;;;27.86;52.33;100259.26;1713002;82;21222;-59
2021/06/16 12:09:22;;;;;;;4.17;2.30;;;;;;;27.97;52.19;100276.12;1724583;82;21801;-61
2021/06/16 12:12:27;;;;;;;3.87;2.45;;;;;;;27.90;52.37;100286.85;1725333;82;21724;-58
2021/06/16 12:15:41;;;;;;;5.60;3.12;;;;;;;27.58;52.99;100276.89;1724949;81;21745;-59
2021/06/16 12:18:47;;;;;;;5.60;3.90;;;;;;;27.41;53.54;100265.19;1725479;82;21394;-56
2021/06/16 12:22:03;;;;;;;7.30;4.50;;;;;;;27.28;53.79;100260.17;1726471;82;21369;-59
2021/06/16 12:25:09;;;;;;;7.58;4.87;;;;;;;27.36;54.40;100258.73;1681775;82;21416;-60
2021/06/16 12:28:16;;;;;;;5.97;4.40;;;;;;;27.55;53.88;100250.75;1703265;84;21211;-58
2021/06/16 12:31:36;;;;;;;8.63;5.65;;;;;;;27.66;52.08;100263.63;1706277;82;21480;-58
2021/06/16 12:34:55;;;;;;;15.30;6.60;;;;;;;27.40;52.11;100259.26;1698177;82;21899;-58
2021/06/16 12:38:02;;;;;;;9.60;6.33;;;;;;;27.22;52.79;100255.68;1678442;84;21190;-57
2021/06/16 12:41:06;;;;;;;8.35;4.35;;;;;;;27.11;53.58;100256.85;1668343;82;21238;-61
2021/06/16 12:44:34;;;;;;;6.92;4.28;;;;;;;26.99;52.54;100257.72;1715356;81;21206;-62
2021/06/16 12:47:40;;;;;;;8.18;3.30;;;;;;;26.88;53.19;100269.30;1703915;83;21213;-61
2021/06/16 12:51:06;;;;;;;8.68;3.58;;;;;;;26.84;53.10;100276.05;1686689;83;21758;-59
2021/06/16 12:54:12;;;;;;;7.67;3.35;;;;;;;26.72;53.65;100286.73;1688070;83;21222;-59
2021/06/16 12:57:24;;;;;;;7.17;2.42;;;;;;;26.63;55.01;100291.22;1683292;84;21259;-58
2021/06/16 13:00:34;;;;;;;;;;;;;;;26.65;54.64;100293.22;1685848;84;21411;-59
2021/06/16 13:03:39;;;;;;;5.47;2.02;;;;;;;26.68;52.45;100293.20;1680527;85;20213;-60
2021/06/16 13:06:43;;;;;;;3.30;2.10;;;;;;;26.64;52.35;100283.09;1683433;85;21208;-60
2021/06/16 13:10:11;;;;;;;3.20;2.10;;;;;;;26.61;51.47;100282.23;1683529;85;21239;-59
2021/06/16 13:13:23;;;;;;;3.35;2.15;;;;;;;26.52;51.46;100281.67;1680177;85;21795;-58
2021/06/16 13:16:32;;;;;;;6.73;1.80;;;;;;;26.51;52.62;100279.45;1668122;85;21250;-59
2021/06/16 13:19:38;;;;;;;2.80;1.90;;;;;;;26.54;51.42;100288.72;1682773;84;21756;-58
2021/06/16 13:22:49;;;;;;;4.45;2.40;;;;;;;26.57;50.92;100280.27;1682716;84;21206;-59
2021/06/16 13:25:59;;;;;;;4.22;1.92;;;;;;;26.59;50.56;100277.48;1683245;84;21231;-59
2021/06/16 13:29:13;;;;;;;5.28;2.20;;;;;;;26.66;50.62;100272.42;1683239;84;21191;-58
2021/06/16 13:32:22;;;;;;;6.50;2.70;;;;;;;26.76;51.07;100270.16;1683590;84;21188;-58
2021/06/16 13:35:30;;;;;;;3.22;1.98;;;;;;;26.86;53.15;100261.72;1676645;83;21238;-59
2021/06/16 13:38:39;;;;;;;6.72;2.25;;;;;;;26.94;54.79;100266.75;1659802;84;21971;-59
2021/06/16 13:41:45;;;;;;;4.10;2.15;;;;;;;27.05;55.01;100267.81;1658523;82;21783;-60
2021/06/16 13:44:50;;;;;;;4.35;2.33;;;;;;;27.16;55.81;100284.09;1658757;84;21306;-59
2021/06/16 13:47:55;;;;;;;5.03;2.50;;;;;;;27.16;56.29;100297.56;1682406;84;21192;-58
2021/06/16 13:51:00;;;;;;;4.12;2.37;;;;;;;27.09;57.36;100306.88;1684300;84;21228;-61
2021/06/16 13:54:05;;;;;;;4.28;2.77;;;;;;;26.97;57.48;100316.20;1677193;85;21224;-60
2021/06/16 13:57:12;;;;;;;6.70;3.50;;;;;;;26.83;58.24;100320.70;1683234;84;22080;-60
2021/06/16 14:00:19;;;;;;;7.12;3.55;;;;;;;26.66;59.02;100326.34;1683192;84;21211;-61
2021/06/16 14:03:27;;;;;;;5.97;2.40;;;;;;;26.46;59.78;100330.00;1683670;84;21764;-57
2021/06/16 14:06:44;;;;;;;3.90;2.37;;;;;;;26.25;59.30;100333.91;1676942;85;21714;-59
2021/06/16 14:09:52;;;;;;;10.00;2.20;;;;;;;25.84;56.15;100330.17;1680866;83;21231;-60
2021/06/16 14:13:00;;;;;;;10.58;2.20;;;;;;;25.18;54.91;100339.97;1694852;84;21240;-57
2021/06/16 14:16:06;;;;;;;4.25;1.75;;;;;;;24.45;55.22;100343.64;1694307;83;21223;-57
2021/06/16 14:19:11;;;;;;;4.55;1.90;;;;;;;23.77;55.03;100334.54;1669345;84;21522;-56
2021/06/16 14:22:16;;;;;;;3.83;2.30;;;;;;;23.13;55.83;100320.04;1679938;85;21308;-58
2021/06/16 14:25:24;;;;;;;8.75;2.83;;;;;;;22.62;58.82;100324.59;1682484;84;21235;-56
2021/06/16 14:28:29;;;;;;;8.25;2.52;;;;;;;22.20;61.86;100328.33;1682558;84;21266;-56
2021/06/16 14:31:37;;;;;;;6.28;2.60;;;;;;;21.92;63.95;100315.84;1683346;84;21203;-56
2021/06/16 14:34:42;;;;;;;4.87;2.62;;;;;;;21.74;65.71;100310.48;1683474;84;21215;-56
2021/06/16 14:37:47;;;;;;;5.58;2.25;;;;;;;21.60;67.10;100315.48;1683206;84;21250;-61
2021/06/16 14:40:51;;;;;;;8.80;2.42;;;;;;;21.48;68.09;100313.31;1693062;83;21402;-56